Terminal Aerodrome Forecast
Issued by NWS Binghamton, NY

Home | Current Version | Previous Version | Text Only | Print | Product List | Glossary On
Versions: 1 2 3 4 5 6 7 8 9 10 11 12 13 14 15 16 17 18 19 20 21 22 23 24
000
FTUS41 KBGM 161700
TAFBGM
TAF
KBGM 161720Z 1618/1718 30008KT P6SM BKN040
      TEMPO 1618/1619 OVC015
     FM162300 31004KT P6SM FEW250
      TEMPO 1708/1712 2SM BR BKN009
     FM171400 26003KT P6SM FEW250=

USA.gov is the U.S. government's official web portal to all federal, state and local government web resources and services.